Terminal Aerodrome Forecast
Issued by NWS

Home | Current Version | Previous Version | Text Only | Print | Product List | Glossary On
Versions: 1 2 3 4 5 6 7 8 9 10 11 12 13
000
FTUS42 TJSJ 262300
TAFJPS
TAF
TJPS 262331Z 2700/2724 08007KT P6SM FEW030 FEW060
     FM271500 13010KT P6SM FEW030 FEW060
     FM272200 06004KT P6SM FEW040
      AMD NOT SKED TIL 270300=

USA.gov is the U.S. government's official web portal to all federal, state and local government web resources and services.